createdAt,value
2023-02-24T00:01:25.317Z,100834.22
2023-02-24T00:03:52.320Z,100836.78
2023-02-24T00:06:18.853Z,100843.78
2023-02-24T00:08:45.309Z,100825.34
2023-02-24T00:11:13.221Z,100826.00
2023-02-24T00:13:40.369Z,100822.31
2023-02-24T00:16:07.463Z,100813.56
2023-02-24T00:18:34.065Z,100818.59
2023-02-24T00:21:05.551Z,100806.34
2023-02-24T00:23:31.898Z,100814.22
2023-02-24T00:26:00.007Z,100801.16
2023-02-24T00:28:28.219Z,100805.53
2023-02-24T00:30:55.929Z,100805.53
2023-02-24T00:33:24.581Z,100795.94
2023-02-24T00:35:51.434Z,100787.25
2023-02-24T00:38:17.799Z,100786.41
2023-02-24T00:40:47.949Z,100782.09
2023-02-24T00:43:14.288Z,100779.47
2023-02-24T00:45:40.641Z,100780.31
2023-02-24T00:48:10.544Z,100775.97
2023-02-24T00:50:38.978Z,100767.31
2023-02-24T00:53:06.525Z,100760.44
2023-02-24T00:55:36.412Z,100760.38
2023-02-24T00:58:07.313Z,100758.72
2023-02-24T01:00:36.573Z,100747.34
2023-02-24T01:03:03.561Z,100745.56
2023-02-24T01:05:29.891Z,100748.13
2023-02-24T01:07:56.613Z,100738.63
2023-02-24T01:10:23.443Z,100736.78
2023-02-24T01:12:50.000Z,100716.88
2023-02-24T01:15:19.064Z,100715.03
2023-02-24T01:17:45.370Z,100712.47
2023-02-24T01:20:16.596Z,100712.53
2023-02-24T01:22:43.892Z,100715.13
2023-02-24T01:25:11.170Z,100707.31
2023-02-24T01:27:37.680Z,100709.09
2023-02-24T01:30:04.989Z,100704.78
2023-02-24T01:32:34.214Z,100699.59
2023-02-24T01:35:00.605Z,100697.00
2023-02-24T01:37:30.411Z,100691.72
2023-02-24T01:39:56.746Z,100680.47
2023-02-24T01:42:23.432Z,100676.16
2023-02-24T01:44:51.897Z,100677.94
2023-02-24T01:47:22.263Z,100669.16
2023-02-24T01:49:52.498Z,100665.66
2023-02-24T01:52:18.788Z,100656.06
2023-02-24T01:54:47.699Z,100656.97
2023-02-24T01:57:17.177Z,100648.22
2023-02-24T01:59:48.057Z,100649.97
2023-02-24T02:02:15.436Z,100642.91
2023-02-24T02:04:45.126Z,100639.34
2023-02-24T02:07:12.587Z,100641.03
2023-02-24T02:09:41.563Z,100633.13
2023-02-24T02:12:09.468Z,100628.78
2023-02-24T02:14:37.606Z,100629.72
2023-02-24T02:17:16.139Z,100617.47
2023-02-24T02:20:01.289Z,100616.66
2023-02-24T02:22:45.920Z,100617.50
2023-02-24T02:25:12.609Z,100607.97
2023-02-24T02:27:51.157Z,100601.00
2023-02-24T02:30:31.213Z,100596.66
2023-02-24T02:33:06.800Z,100594.06
2023-02-24T02:35:36.964Z,100586.25
2023-02-24T02:38:06.315Z,100587.16
2023-02-24T02:40:37.503Z,100582.72
2023-02-24T02:43:25.847Z,100572.25
2023-02-24T02:46:15.659Z,100562.59
2023-02-24T02:48:59.236Z,100560.03
2023-02-24T02:51:38.671Z,100552.16
2023-02-24T02:54:10.181Z,100545.97
2023-02-24T02:56:38.866Z,100552.91
2023-02-24T02:59:08.290Z,100541.56
2023-02-24T03:01:37.708Z,100535.44
2023-02-24T03:04:06.373Z,100524.13
2023-02-24T03:06:34.082Z,100526.78
2023-02-24T03:09:20.644Z,100527.69
2023-02-24T03:11:59.249Z,100515.56
2023-02-24T03:14:28.224Z,100505.94
2023-02-24T03:16:55.861Z,100498.97
2023-02-24T03:19:26.426Z,100491.13
2023-02-24T03:21:59.571Z,100480.69
2023-02-24T03:24:27.952Z,100475.44
2023-02-24T03:27:00.525Z,100476.25
2023-02-24T03:29:33.009Z,100464.09
2023-02-24T03:32:02.878Z,100459.78
2023-02-24T03:34:33.495Z,100456.41
2023-02-24T03:37:00.047Z,100437.28
2023-02-24T03:39:26.379Z,100439.06
2023-02-24T03:41:58.338Z,100433.84
2023-02-24T03:44:24.984Z,100429.47
2023-02-24T03:46:52.542Z,100426.84
2023-02-24T03:49:18.928Z,100422.47
2023-02-24T03:52:03.741Z,100413.75
2023-02-24T03:54:43.746Z,100408.53
2023-02-24T03:57:18.879Z,100392.81
2023-02-24T03:59:47.933Z,100377.97
2023-02-24T04:02:23.413Z,100377.94
2023-02-24T04:04:55.626Z,100377.06
2023-02-24T04:07:37.160Z,100373.56
2023-02-24T04:10:35.678Z,100359.63
2023-02-24T04:13:07.377Z,100353.47
2023-02-24T04:15:44.328Z,100355.19
2023-02-24T04:18:15.571Z,100345.59
2023-02-24T04:20:43.723Z,100338.66
2023-02-24T04:23:16.169Z,100336.09
2023-02-24T04:25:44.831Z,100328.31
2023-02-24T04:28:11.972Z,100327.50
2023-02-24T04:30:40.818Z,100322.28
2023-02-24T04:33:07.796Z,100306.63
2023-02-24T04:35:34.361Z,100306.69
2023-02-24T04:38:00.722Z,100295.31
2023-02-24T04:40:27.093Z,100295.25
2023-02-24T04:42:54.079Z,100292.59
2023-02-24T04:45:30.219Z,100279.53
2023-02-24T04:48:00.795Z,100282.16
2023-02-24T04:50:28.418Z,100273.50
2023-02-24T04:52:56.053Z,100264.69
2023-02-24T04:55:23.502Z,100269.03
2023-02-24T04:57:52.663Z,100251.38
2023-02-24T05:00:22.801Z,100256.50
2023-02-24T05:02:50.323Z,100257.28
2023-02-24T05:05:17.721Z,100246.72
2023-02-24T05:07:47.713Z,100247.50
2023-02-24T05:10:15.327Z,100241.28
2023-02-24T05:12:42.219Z,100241.25
2023-02-24T05:15:08.942Z,100235.09
2023-02-24T05:17:38.267Z,100242.03
2023-02-24T05:20:23.867Z,100235.03
2023-02-24T05:22:53.553Z,100226.34
2023-02-24T05:25:20.461Z,100220.16
2023-02-24T05:27:47.417Z,100225.28
2023-02-24T05:30:14.505Z,100216.56
2023-02-24T05:32:40.974Z,100208.66
2023-02-24T05:35:07.595Z,100203.44
2023-02-24T05:37:37.442Z,100193.84
2023-02-24T05:40:04.354Z,100184.19
2023-02-24T05:42:35.066Z,100190.09
2023-02-24T05:45:01.725Z,100173.56
2023-02-24T05:47:28.374Z,100177.88
2023-02-24T05:49:56.885Z,100166.41
2023-02-24T05:52:23.274Z,100162.75
2023-02-24T05:54:49.861Z,100150.59
2023-02-24T05:57:20.922Z,100145.31
2023-02-24T05:59:50.814Z,100143.56
2023-02-24T06:02:18.196Z,100140.00
2023-02-24T06:04:50.798Z,100140.91
2023-02-24T06:07:24.590Z,100135.69
2023-02-24T06:09:56.556Z,100133.88
2023-02-24T06:12:28.026Z,100126.91
2023-02-24T06:14:54.695Z,100119.16
2023-02-24T06:17:21.806Z,100121.66
2023-02-24T06:19:50.346Z,100115.53
2023-02-24T06:22:19.181Z,100119.00
2023-02-24T06:24:46.039Z,100105.97
2023-02-24T06:27:18.768Z,100112.09
2023-02-24T06:29:45.886Z,100100.69
2023-02-24T06:32:12.778Z,100087.63
2023-02-24T06:34:39.547Z,100078.03
2023-02-24T06:37:07.294Z,100268.22
2023-02-24T06:39:36.593Z,100289.16
2023-02-24T06:42:05.498Z,100311.72
2023-02-24T06:44:32.581Z,100322.16
2023-02-24T06:46:58.976Z,100341.25
2023-02-24T06:49:26.673Z,100356.97
2023-02-24T06:51:54.581Z,100369.94
2023-02-24T06:54:22.431Z,100387.31
2023-02-24T06:56:49.358Z,100415.22
2023-02-24T06:59:21.588Z,100424.78
2023-02-24T07:01:51.057Z,100439.56
2023-02-24T07:04:17.724Z,100448.19
2023-02-24T07:06:50.251Z,100452.44
2023-02-24T07:09:16.979Z,100478.59
2023-02-24T07:11:46.890Z,100494.25
2023-02-24T07:14:13.404Z,100506.44
2023-02-24T07:16:42.726Z,100525.53
2023-02-24T07:19:11.345Z,100535.94
2023-02-24T07:21:43.327Z,100550.78
2023-02-24T07:24:13.381Z,100561.22
2023-02-24T07:26:41.547Z,100580.31
2023-02-24T07:29:09.166Z,100583.78
2023-02-24T07:31:37.100Z,100593.34
2023-02-24T07:34:03.856Z,100603.75
2023-02-24T07:36:30.624Z,100618.59
2023-02-24T07:38:58.738Z,100612.50
2023-02-24T07:41:26.429Z,100620.31
2023-02-24T07:43:53.745Z,100625.53
2023-02-24T07:46:24.487Z,100622.19
2023-02-24T07:48:54.295Z,100630.84
2023-02-24T07:51:22.580Z,100621.06
2023-02-24T07:53:52.286Z,100610.50
2023-02-24T07:56:19.604Z,100607.00
2023-02-24T07:58:53.484Z,100542.50
2023-02-24T08:01:27.985Z,100390.47
2023-02-24T08:04:01.049Z,100278.38
2023-02-24T08:06:37.833Z,100196.72
2023-02-24T08:09:17.485Z,100157.59
2023-02-24T08:11:47.161Z,100124.59
2023-02-24T08:14:14.038Z,100102.00
2023-02-24T08:16:43.762Z,100063.69
2023-02-24T08:19:13.311Z,100054.13
2023-02-24T08:21:47.340Z,100045.47
2023-02-24T08:24:17.855Z,100028.97
2023-02-24T08:27:03.682Z,100017.63
2023-02-24T08:29:40.127Z,100000.25
2023-02-24T08:32:09.415Z,100000.31
2023-02-24T08:34:36.603Z,100004.75
2023-02-24T08:37:02.927Z,99997.88
2023-02-24T08:39:36.407Z,100000.50
2023-02-24T08:42:03.153Z,99999.72
2023-02-24T08:44:29.463Z,99992.81
2023-02-24T08:46:55.945Z,99964.78
2023-02-24T08:49:24.895Z,99956.16
2023-02-24T08:51:52.919Z,99957.16
2023-02-24T08:54:31.922Z,99957.13
2023-02-24T08:57:08.003Z,99947.44
2023-02-24T08:59:40.215Z,99935.34
2023-02-24T09:02:23.290Z,99939.66
2023-02-24T09:04:54.317Z,99943.19
2023-02-24T09:07:25.431Z,99959.03
2023-02-24T09:09:58.244Z,99966.06
2023-02-24T09:12:26.393Z,99957.31
2023-02-24T09:14:55.447Z,99954.72
2023-02-24T09:17:40.043Z,99966.13
2023-02-24T09:20:29.829Z,99991.56
2023-02-24T09:23:04.177Z,100007.38
2023-02-24T09:25:40.998Z,100028.41
2023-02-24T09:28:10.796Z,100045.03
2023-02-24T09:30:39.239Z,100053.78
2023-02-24T09:33:18.951Z,100066.94
2023-02-24T09:35:46.807Z,100082.72
2023-02-24T09:38:16.678Z,100109.03
2023-02-24T09:40:50.788Z,100125.66
2023-02-24T09:43:21.889Z,100137.06
2023-02-24T09:45:54.414Z,100138.00
2023-02-24T09:48:43.917Z,100139.81
2023-02-24T09:51:23.004Z,100119.75
2023-02-24T09:53:53.740Z,100109.34
2023-02-24T09:56:22.242Z,100132.13
2023-02-24T09:58:48.715Z,100154.91
2023-02-24T10:01:33.932Z,100170.72
2023-02-24T10:04:21.406Z,100169.00
2023-02-24T10:06:48.943Z,100183.91
2023-02-24T10:09:27.112Z,100211.94
2023-02-24T10:12:04.189Z,100253.16
2023-02-24T10:14:44.481Z,100313.72
2023-02-24T10:17:23.367Z,100357.66
2023-02-24T10:19:59.799Z,100360.34
2023-02-24T10:22:40.358Z,100405.00
2023-02-24T10:25:23.340Z,99709.59
2023-02-24T10:27:58.427Z,99795.91
2023-02-24T10:30:41.103Z,99823.97
2023-02-24T10:33:18.619Z,99877.31
2023-02-24T10:35:44.925Z,99852.84
2023-02-24T10:38:11.492Z,99825.69
2023-02-24T10:40:56.488Z,99831.84
2023-02-24T10:43:30.589Z,99868.56
2023-02-24T10:46:16.940Z,99901.81
2023-02-24T10:48:50.554Z,99903.53
2023-02-24T10:51:31.861Z,99903.56
2023-02-24T10:54:33.627Z,99910.53
2023-02-24T10:57:18.638Z,99893.06
2023-02-24T11:00:18.869Z,99907.94
2023-02-24T11:03:08.373Z,99974.41
2023-02-24T11:05:44.258Z,100004.19
2023-02-24T11:08:10.645Z,100097.00
2023-02-24T11:10:52.984Z,100177.59
2023-02-24T11:13:38.200Z,100203.03
2023-02-24T11:16:26.067Z,100256.59
2023-02-24T11:18:54.535Z,100266.28
2023-02-24T11:21:23.092Z,100236.56
2023-02-24T11:23:51.172Z,100211.16
2023-02-24T11:26:23.247Z,100198.84
2023-02-24T11:28:52.620Z,100200.59
2023-02-24T11:31:25.631Z,100223.44
2023-02-24T11:34:10.722Z,100208.53
2023-02-24T11:36:41.312Z,100197.13
2023-02-24T11:39:18.895Z,100185.72
2023-02-24T11:41:50.914Z,100169.06
2023-02-24T11:44:20.214Z,100157.69
2023-02-24T11:46:54.579Z,100166.44
2023-02-24T11:49:26.656Z,100160.31
2023-02-24T11:51:54.220Z,100139.25
2023-02-24T11:54:21.196Z,100112.94
2023-02-24T11:56:50.109Z,100077.03
2023-02-24T11:59:22.878Z,100026.22
2023-02-24T12:02:08.012Z,99986.81
2023-02-24T12:04:40.438Z,100030.59
2023-02-24T12:07:15.629Z,100098.91
2023-02-24T12:09:50.212Z,100139.22
2023-02-24T12:12:16.519Z,100159.41
2023-02-24T12:14:47.832Z,100170.00
2023-02-24T12:17:32.789Z,100189.56
2023-02-24T12:20:17.692Z,100225.03
2023-02-24T12:22:47.353Z,100147.78
2023-02-24T12:25:15.068Z,100000.56
2023-02-24T12:27:49.046Z,99816.78
2023-02-24T12:30:38.856Z,99613.91
2023-02-24T12:33:05.450Z,99655.00
2023-02-24T12:35:44.651Z,99603.41
2023-02-24T12:38:46.407Z,99558.06
2023-02-24T12:41:12.753Z,99503.06
2023-02-24T12:43:45.472Z,99490.88
2023-02-24T12:46:24.077Z,99488.31
2023-02-24T12:49:11.943Z,99469.16
2023-02-24T12:51:54.769Z,99436.06
2023-02-24T12:54:39.360Z,99653.28
2023-02-24T12:57:19.767Z,99641.91
2023-02-24T12:59:46.721Z,99638.44
2023-02-24T13:02:31.618Z,99657.63
2023-02-24T13:05:16.889Z,99663.00
2023-02-24T13:08:01.417Z,99679.63
2023-02-24T13:10:27.720Z,99663.91
2023-02-24T13:13:02.434Z,99678.75
2023-02-24T13:15:33.529Z,99690.13
2023-02-24T13:17:59.912Z,99788.03
2023-02-24T13:20:34.317Z,99990.19
2023-02-24T13:23:01.870Z,99958.63
2023-02-24T13:25:37.499Z,99930.59
2023-02-24T13:28:05.937Z,99956.81
2023-02-24T13:30:37.253Z,100059.28
2023-02-24T13:33:03.666Z,100021.59
2023-02-24T13:35:32.002Z,100025.09
2023-02-24T13:38:07.496Z,99878.91
2023-02-24T13:40:33.852Z,99823.78
2023-02-24T13:43:01.706Z,99746.81
2023-02-24T13:45:29.140Z,99773.94
2023-02-24T13:48:13.970Z,99774.81
2023-02-24T13:51:00.571Z,99729.34
2023-02-24T13:53:45.641Z,99699.63
2023-02-24T13:56:15.075Z,99651.59
2023-02-24T13:58:45.945Z,99658.63
2023-02-24T14:01:14.291Z,99644.72
2023-02-24T14:03:41.699Z,99625.50
2023-02-24T14:06:25.916Z,99629.00
2023-02-24T14:08:57.617Z,99626.38
2023-02-24T14:11:26.899Z,99622.88
2023-02-24T14:13:54.209Z,99616.75
2023-02-24T14:16:23.923Z,99616.75
2023-02-24T14:19:03.739Z,99623.75
2023-02-24T14:21:31.558Z,99634.22
2023-02-24T14:24:10.641Z,99642.97
2023-02-24T14:26:45.353Z,99629.84
2023-02-24T14:29:13.976Z,99628.97
2023-02-24T14:31:41.252Z,99623.75
2023-02-24T14:34:15.873Z,99629.88
2023-02-24T14:36:43.849Z,99685.78
2023-02-24T14:39:15.975Z,99711.94
2023-02-24T14:41:42.769Z,99686.59
2023-02-24T14:44:29.319Z,99656.06
2023-02-24T14:46:56.895Z,99642.97
2023-02-24T14:49:25.148Z,99630.72
2023-02-24T14:51:58.761Z,99631.63
2023-02-24T14:54:33.414Z,99628.09
2023-02-24T14:57:00.328Z,99615.00
2023-02-24T14:59:33.459Z,99612.41
2023-02-24T15:02:02.556Z,99595.81
2023-02-24T15:04:28.951Z,99591.44
2023-02-24T15:06:55.351Z,99635.97
2023-02-24T15:09:23.655Z,99623.75
2023-02-24T15:11:50.998Z,99655.19
2023-02-24T15:14:25.224Z,99680.47
2023-02-24T15:16:53.523Z,99686.59
2023-02-24T15:19:33.727Z,99723.28
2023-02-24T15:22:00.112Z,99726.84
2023-02-24T15:24:28.277Z,99548.50
2023-02-24T15:26:59.313Z,99379.09
2023-02-24T15:29:27.747Z,99312.78
2023-02-24T15:31:55.374Z,99322.44
2023-02-24T15:34:34.780Z,99315.47
2023-02-24T15:37:04.262Z,99316.38
2023-02-24T15:39:32.102Z,99313.78
2023-02-24T15:42:07.208Z,99310.28
2023-02-24T15:44:34.918Z,99312.06
2023-02-24T15:47:18.964Z,99316.41
2023-02-24T15:49:45.259Z,99304.22
2023-02-24T15:52:11.670Z,99305.09
2023-02-24T15:54:39.305Z,99307.72
2023-02-24T15:57:06.132Z,99305.97
2023-02-24T15:59:32.510Z,99308.59
2023-02-24T16:01:58.845Z,99302.50
2023-02-24T16:04:26.785Z,99296.44
2023-02-24T16:06:54.663Z,99300.84
2023-02-24T16:09:27.517Z,99297.34
2023-02-24T16:11:54.226Z,99303.47
2023-02-24T16:14:20.705Z,99300.00
2023-02-24T16:16:47.171Z,99304.38
2023-02-24T16:19:15.029Z,99303.50
2023-02-24T16:21:41.457Z,99300.91
2023-02-24T16:24:07.877Z,99303.50
2023-02-24T16:26:36.638Z,99291.31
2023-02-24T16:29:03.509Z,99300.03
2023-02-24T16:31:29.998Z,99301.78
2023-02-24T16:33:58.279Z,99302.63
2023-02-24T16:36:25.633Z,99302.59
2023-02-24T16:38:52.294Z,99307.81
2023-02-24T16:41:18.833Z,99313.03
2023-02-24T16:43:45.149Z,99308.69
2023-02-24T16:46:15.941Z,99312.16
2023-02-24T16:48:44.799Z,99314.75
2023-02-24T16:51:11.284Z,99316.50
2023-02-24T16:53:38.080Z,99320.00
2023-02-24T16:56:04.843Z,99318.22
2023-02-24T16:58:31.705Z,99307.78
2023-02-24T17:01:00.249Z,99319.97
2023-02-24T17:03:28.607Z,99321.72
2023-02-24T17:05:54.912Z,99327.81
2023-02-24T17:08:21.648Z,99321.69
2023-02-24T17:10:48.582Z,99326.91
2023-02-24T17:13:16.272Z,99326.03
2023-02-24T17:15:42.848Z,99328.59
2023-02-24T17:18:09.681Z,99323.38
2023-02-24T17:20:36.511Z,99329.47
2023-02-24T17:23:02.888Z,99327.72
2023-02-24T17:25:30.508Z,99330.31
2023-02-24T17:27:58.277Z,99336.41
2023-02-24T17:30:29.218Z,99336.41
2023-02-24T17:32:55.696Z,99339.00
2023-02-24T17:35:22.692Z,99343.38
2023-02-24T17:37:49.149Z,99340.75
2023-02-24T17:40:15.730Z,99346.00
2023-02-24T17:42:42.125Z,99338.13
2023-02-24T17:45:09.218Z,99340.75
2023-02-24T17:47:35.700Z,99343.41
2023-02-24T17:50:02.579Z,99345.16
2023-02-24T17:52:30.629Z,99345.16
2023-02-24T17:54:57.148Z,99336.47
2023-02-24T17:57:23.605Z,99342.56
2023-02-24T17:59:49.922Z,99343.41
2023-02-24T18:02:17.259Z,99342.56
2023-02-24T18:04:43.728Z,99340.81
2023-02-24T18:07:10.735Z,99347.75
2023-02-24T18:09:37.078Z,99339.91
2023-02-24T18:12:04.026Z,99350.34
2023-02-24T18:14:30.582Z,99340.78
2023-02-24T18:16:56.899Z,99348.59
2023-02-24T18:19:23.475Z,99346.88
2023-02-24T18:21:49.891Z,99341.66
2023-02-24T18:24:16.316Z,99341.66
2023-02-24T18:26:42.746Z,99350.31
2023-02-24T18:29:09.070Z,99357.22
2023-02-24T18:31:35.607Z,99361.53
2023-02-24T18:34:02.158Z,99362.41
2023-02-24T18:36:28.566Z,99362.38
2023-02-24T18:38:56.353Z,99364.09
2023-02-24T18:41:23.518Z,99364.09
2023-02-24T18:43:54.385Z,99363.22
2023-02-24T18:46:21.792Z,99358.91
2023-02-24T18:48:50.162Z,99365.88
2023-02-24T18:51:18.482Z,99364.09
2023-02-24T18:53:45.283Z,99366.72
2023-02-24T18:56:19.002Z,99368.47
2023-02-24T18:58:45.943Z,99373.69
2023-02-24T19:01:23.570Z,99374.56
2023-02-24T19:03:50.982Z,99382.41
2023-02-24T19:06:21.492Z,99369.34
2023-02-24T19:08:49.151Z,99378.06
2023-02-24T19:11:25.787Z,99380.69
2023-02-24T19:13:53.019Z,99385.00
2023-02-24T19:16:19.678Z,99378.03
2023-02-24T19:18:49.359Z,99391.09
2023-02-24T19:21:15.734Z,99391.94
2023-02-24T19:23:42.048Z,99384.13
2023-02-24T19:26:15.118Z,99384.13
2023-02-24T19:28:41.435Z,99392.84
2023-02-24T19:31:13.122Z,99388.47
2023-02-24T19:33:39.523Z,99389.31
2023-02-24T19:36:05.964Z,99394.53
2023-02-24T19:41:12.740Z,99389.28
2023-02-24T19:43:41.971Z,99397.97
2023-02-24T19:46:09.471Z,99396.25
2023-02-24T19:48:35.997Z,99404.97
2023-02-24T19:51:13.245Z,99397.13
2023-02-24T19:53:40.159Z,99407.56
2023-02-24T19:56:06.724Z,99405.84
2023-02-24T19:58:33.340Z,99397.13
2023-02-24T20:01:06.765Z,99405.00
2023-02-24T20:03:33.121Z,99415.44
2023-02-24T20:05:59.580Z,99418.00
2023-02-24T20:08:25.908Z,99426.66
2023-02-24T20:11:01.735Z,99425.72
2023-02-24T20:13:28.228Z,99417.94
2023-02-24T20:16:03.370Z,99424.94
2023-02-24T20:18:29.679Z,99426.59
2023-02-24T20:20:59.208Z,99431.84
2023-02-24T20:23:25.673Z,99427.47
2023-02-24T20:25:55.917Z,99428.38
2023-02-24T20:28:22.663Z,99437.09
2023-02-24T20:30:49.471Z,99434.44
2023-02-24T20:33:16.453Z,99430.13
2023-02-24T20:35:42.796Z,99444.03
2023-02-24T20:38:09.304Z,99441.34
2023-02-24T20:40:36.769Z,99457.00
2023-02-24T20:43:04.776Z,99454.28
2023-02-24T20:45:32.113Z,99459.38
2023-02-24T20:47:58.518Z,99456.72
2023-02-24T20:50:24.957Z,99462.78
2023-02-24T20:52:51.298Z,99461.91
2023-02-24T20:55:17.782Z,99467.03
2023-02-24T20:57:44.120Z,99473.97
2023-02-24T21:00:10.850Z,99466.19
2023-02-24T21:02:40.243Z,99468.78
2023-02-24T21:05:07.377Z,99472.25
2023-02-24T21:07:36.066Z,99468.75
2023-02-24T21:10:03.335Z,99472.19
2023-02-24T21:12:29.694Z,99478.25
2023-02-24T21:14:56.091Z,99474.81
2023-02-24T21:17:22.436Z,99486.06
2023-02-24T21:19:49.796Z,99486.13
2023-02-24T21:22:16.197Z,99484.34
2023-02-24T21:24:42.830Z,99495.63
2023-02-24T21:27:09.861Z,99498.16
2023-02-24T21:29:36.201Z,99486.94
2023-02-24T21:32:03.299Z,99486.09
2023-02-24T21:34:30.519Z,99496.47
2023-02-24T21:36:57.092Z,99500.81
2023-02-24T21:39:23.375Z,99507.75
2023-02-24T21:41:49.784Z,99500.88
2023-02-24T21:44:16.185Z,99507.84
2023-02-24T21:46:42.713Z,99504.34
2023-02-24T21:49:14.225Z,99498.25
2023-02-24T21:51:41.862Z,99514.78
2023-02-24T21:54:12.473Z,99511.28
2023-02-24T21:56:38.813Z,99521.72
2023-02-24T21:59:06.266Z,99519.94
2023-02-24T22:01:34.008Z,99518.19
2023-02-24T22:04:01.578Z,99526.00
2023-02-24T22:06:31.268Z,99522.47
2023-02-24T22:08:58.046Z,99535.47
2023-02-24T22:11:24.361Z,99543.25
2023-02-24T22:13:50.729Z,99540.50
2023-02-24T22:16:21.416Z,99546.56
2023-02-24T22:18:48.250Z,99543.81
2023-02-24T22:21:18.540Z,99549.00
2023-02-24T22:23:45.434Z,99562.91
2023-02-24T22:26:12.000Z,99566.44
2023-02-24T22:28:39.739Z,99566.38
2023-02-24T22:31:07.055Z,99568.03
2023-02-24T22:33:34.954Z,99572.41
2023-02-24T22:36:02.446Z,99582.03
2023-02-24T22:38:32.659Z,99576.94
2023-02-24T22:40:59.919Z,99582.13
2023-02-24T22:43:26.656Z,99580.38
2023-02-24T22:46:00.677Z,99577.75
2023-02-24T22:48:27.926Z,99576.97
2023-02-24T22:50:55.677Z,99584.78
2023-02-24T22:53:22.179Z,99590.06
2023-02-24T22:55:49.008Z,99595.13
2023-02-24T22:58:16.045Z,99596.03
2023-02-24T23:00:45.940Z,99610.69
2023-02-24T23:03:12.955Z,99610.56
2023-02-24T23:05:40.721Z,99615.59
2023-02-24T23:08:10.062Z,99616.50
2023-02-24T23:10:36.380Z,99622.59
2023-02-24T23:13:02.755Z,99607.72
2023-02-24T23:15:29.048Z,99624.25
2023-02-24T23:17:55.390Z,99622.56
2023-02-24T23:20:21.718Z,99633.84
2023-02-24T23:22:53.129Z,99620.81
2023-02-24T23:25:19.784Z,99637.34
2023-02-24T23:27:46.093Z,99639.09
2023-02-24T23:30:12.524Z,99647.78
2023-02-24T23:32:38.947Z,99645.97
2023-02-24T23:35:05.548Z,99651.19
2023-02-24T23:37:32.041Z,99644.22
2023-02-24T23:39:58.918Z,99652.03
2023-02-24T23:42:25.247Z,99661.59
2023-02-24T23:44:51.633Z,99663.34
2023-02-24T23:47:17.990Z,99663.28
2023-02-24T23:49:48.519Z,99667.72
2023-02-24T23:52:15.245Z,99664.22
2023-02-24T23:54:41.568Z,99674.78
2023-02-24T23:57:07.903Z,99677.25
2023-02-24T23:59:34.274Z,99680.03
